Time;durP1;ratioP1;P1;durP2;ratioP2;P2;SDS_P1;SDS_P2;PMS_P1;PMS_P2;Temp;Humidity;BMP_temperature;BMP_pressure;BME280_temperature;BME280_humidity;BME280_pressure;Samples;Min_cycle;Max_cycle;Signal;HPM_P1;HPM_P2
2022/08/10 00:02:41;;;;;;;0.10;0.10;;;;;;;21.76;41.66;102203.31;7341955;19;20049;-63
2022/08/10 00:05:07;;;;;;;0.00;0.00;;;;;;;21.69;41.67;102202.69;7332836;19;20707;-63
2022/08/10 00:07:33;;;;;;;0.00;0.00;;;;;;;21.63;42.37;102199.47;7338160;19;20014;-63
2022/08/10 00:09:58;;;;;;;0.00;0.00;;;;;;;21.53;42.70;102195.50;7342848;19;20042;-63
2022/08/10 00:12:24;;;;;;;0.00;0.00;;;;;;;21.46;42.72;102201.09;7345206;19;20923;-63
2022/08/10 00:14:49;;;;;;;0.00;0.00;;;;;;;21.35;41.94;102192.72;7351949;19;20010;-63
2022/08/10 00:17:15;;;;;;;0.00;0.00;;;;;;;21.35;42.68;102195.38;7348530;19;20477;-64
2022/08/10 00:19:40;;;;;;;0.08;0.08;;;;;;;21.28;41.73;102187.72;7351994;19;20006;-64
2022/08/10 00:22:05;;;;;;;0.00;0.00;;;;;;;21.22;43.48;102196.81;7350406;19;20014;-63
2022/08/10 00:24:31;;;;;;;0.00;0.00;;;;;;;21.16;42.82;102197.09;7351545;19;20742;-64
2022/08/10 00:26:56;;;;;;;0.00;0.00;;;;;;;21.10;43.56;102197.34;7349500;19;20150;-64
2022/08/10 00:29:21;;;;;;;0.00;0.00;;;;;;;21.07;43.86;102197.47;7351946;19;20006;-63
2022/08/10 00:31:47;;;;;;;0.00;0.00;;;;;;;20.78;42.50;102159.72;7352447;19;21205;-64
2022/08/10 00:34:12;;;;;;;0.00;0.00;;;;;;;20.84;43.26;102171.91;7350323;19;20048;-63
2022/08/10 00:36:38;;;;;;;0.00;0.00;;;;;;;20.94;42.64;102195.34;7347077;19;20018;-63
2022/08/10 00:39:03;;;;;;;0.00;0.00;;;;;;;20.89;43.43;102194.69;7351073;19;20134;-64
2022/08/10 00:41:29;;;;;;;0.00;0.00;;;;;;;20.86;44.23;102199.25;7348952;19;20015;-63
2022/08/10 00:43:54;;;;;;;0.00;0.00;;;;;;;20.81;42.97;102191.47;7350140;19;20113;-63
2022/08/10 00:46:20;;;;;;;0.10;0.10;;;;;;;20.77;44.75;102195.19;7351350;19;20006;-63
2022/08/10 00:48:45;;;;;;;0.00;0.00;;;;;;;20.69;45.05;102192.00;7349650;19;20980;-64
2022/08/10 00:51:11;;;;;;;0.00;0.00;;;;;;;20.71;45.30;102192.78;7352136;19;20006;-62
2022/08/10 00:53:37;;;;;;;0.00;0.00;;;;;;;20.67;44.96;102193.84;7351863;19;20033;-64
2022/08/10 00:56:03;;;;;;;0.00;0.00;;;;;;;20.63;43.71;102197.53;7354087;19;20035;-64
2022/08/10 00:58:28;;;;;;;0.00;0.00;;;;;;;20.59;44.74;102190.66;7349006;19;20015;-64
2022/08/10 01:00:54;;;;;;;0.00;0.00;;;;;;;20.54;44.17;102188.19;7352685;19;20023;-63
2022/08/10 01:03:19;;;;;;;0.00;0.00;;;;;;;20.46;44.94;102185.81;7350876;19;20015;-63
2022/08/10 01:05:56;;;;;;;0.00;0.00;;;;;;;20.47;43.68;102186.69;7351060;19;20022;-64
2022/08/10 01:08:50;;;;;;;0.00;0.00;;;;;;;20.31;43.04;102165.19;7348536;19;20010;-63
2022/08/10 01:11:34;;;;;;;0.00;0.00;;;;;;;20.38;42.87;102182.59;7251977;19;2004260;-63
2022/08/10 01:14:14;;;;;;;0.00;0.00;;;;;;;20.34;43.92;102181.00;7352901;19;20006;-64
2022/08/10 01:16:52;;;;;;;0.00;0.00;;;;;;;20.28;43.78;102173.28;7352930;19;20046;-63
2022/08/10 01:19:59;;;;;;;0.00;0.00;;;;;;;20.23;43.19;102175.25;7358835;19;20010;-64
2022/08/10 01:22:31;;;;;;;0.00;0.00;;;;;;;20.18;44.62;102182.53;7255708;19;2004414;-64
2022/08/10 01:25:20;;;;;;;0.00;0.00;;;;;;;20.13;43.23;102176.53;7359578;19;20007;-64
2022/08/10 01:28:03;;;;;;;0.00;0.00;;;;;;;20.06;44.71;102170.59;7356070;19;20017;-64
2022/08/10 01:30:31;;;;;;;0.00;0.00;;;;;;;19.94;46.11;102165.78;7357556;19;20667;-64
2022/08/10 01:33:07;;;;;;;0.00;0.00;;;;;;;19.96;44.64;102175.38;7359641;19;20537;-64
2022/08/10 01:35:45;;;;;;;0.00;0.00;;;;;;;19.91;45.25;102166.75;7360262;19;20014;-64
2022/08/10 01:38:19;;;;;;;0.00;0.00;;;;;;;19.87;45.44;102170.47;7354036;19;20014;-64
2022/08/10 01:40:50;;;;;;;0.00;0.00;;;;;;;19.83;45.82;102174.13;7362414;19;20006;-64
2022/08/10 01:43:19;;;;;;;0.00;0.00;;;;;;;19.67;46.79;102162.41;7359684;19;20810;-64
2022/08/10 01:45:50;;;;;;;0.00;0.00;;;;;;;19.73;46.86;102178.06;7359434;19;20034;-64
2022/08/10 01:48:33;;;;;;;0.08;0.08;;;;;;;19.68;45.57;102177.38;7357093;19;20013;-63
2022/08/10 01:51:37;;;;;;;0.00;0.00;;;;;;;19.64;46.01;102170.44;7359459;19;20118;-63
2022/08/10 01:54:04;;;;;;;0.00;0.00;;;;;;;19.55;47.40;102171.59;7258640;19;2004434;-63
2022/08/10 01:56:33;;;;;;;0.00;0.00;;;;;;;19.52;47.53;102168.22;7360799;19;20609;-63
2022/08/10 01:59:06;;;;;;;0.10;0.10;;;;;;;19.45;47.71;102171.06;7354597;19;20010;-63
2022/08/10 02:01:37;;;;;;;0.00;0.00;;;;;;;19.32;47.71;102156.56;7368613;19;20180;-63
2022/08/10 02:04:07;;;;;;;0.00;0.00;;;;;;;19.37;46.95;102170.50;7367327;19;20014;-63
2022/08/10 02:06:44;;;;;;;0.00;0.00;;;;;;;19.32;46.41;102172.47;7365847;19;20002;-63
2022/08/10 02:09:14;;;;;;;0.00;0.00;;;;;;;19.25;48.29;102165.63;7365863;19;20050;-64
2022/08/10 02:11:39;;;;;;;0.00;0.00;;;;;;;19.23;48.21;102172.78;7365185;19;20010;-64
2022/08/10 02:14:08;;;;;;;0.00;0.00;;;;;;;19.12;48.57;102159.06;7367088;19;20014;-64
2022/08/10 02:16:36;;;;;;;0.00;0.00;;;;;;;19.18;48.99;102180.88;7367359;19;20021;-64
2022/08/10 02:19:02;;;;;;;0.00;0.00;;;;;;;19.17;49.28;102188.88;7365131;19;20014;-62
2022/08/10 02:21:29;;;;;;;0.00;0.00;;;;;;;19.13;48.15;102185.47;7365211;19;20122;-64
2022/08/10 02:23:59;;;;;;;0.00;0.00;;;;;;;19.09;47.66;102180.34;7365605;19;20396;-63
2022/08/10 02:26:25;;;;;;;0.00;0.00;;;;;;;19.03;49.39;102177.91;7365695;19;20027;-64
2022/08/10 02:28:53;;;;;;;0.00;0.00;;;;;;;19.02;48.15;102179.69;7362180;19;20118;-63
2022/08/10 02:31:21;;;;;;;0.10;0.10;;;;;;;19.00;49.48;102175.34;7365591;19;20643;-64
2022/08/10 02:33:50;;;;;;;0.00;0.00;;;;;;;18.98;48.44;102177.19;7366778;19;20010;-64
2022/08/10 02:36:17;;;;;;;0.00;0.00;;;;;;;18.88;49.64;102166.91;7365386;19;20029;-63
2022/08/10 02:38:51;;;;;;;0.00;0.00;;;;;;;18.92;48.58;102167.69;7365014;19;20007;-64
2022/08/10 02:41:24;;;;;;;0.00;0.00;;;;;;;18.79;49.44;102154.00;7365783;19;20010;-64
2022/08/10 02:43:56;;;;;;;0.00;0.00;;;;;;;18.75;49.59;102149.72;7363337;19;20093;-63
2022/08/10 02:46:45;;;;;;;0.00;0.00;;;;;;;18.82;47.70;102164.50;7366650;19;20037;-64
2022/08/10 02:49:19;;;;;;;0.00;0.00;;;;;;;18.76;49.34;102164.69;7366015;19;20021;-63
2022/08/10 02:52:00;;;;;;;0.00;0.00;;;;;;;18.74;48.34;102158.56;7361590;19;22398;-63
2022/08/10 02:54:32;;;;;;;0.00;0.00;;;;;;;18.73;50.09;102171.88;7367654;19;20027;-63
2022/08/10 02:57:17;;;;;;;0.00;0.00;;;;;;;18.69;50.68;102168.44;7364338;19;20562;-64
2022/08/10 02:59:52;;;;;;;0.00;0.00;;;;;;;18.65;49.39;102169.44;7367280;19;20461;-64
2022/08/10 03:02:40;;;;;;;0.00;0.00;;;;;;;18.62;48.77;102174.84;7366724;19;20006;-63
2022/08/10 03:05:09;;;;;;;0.00;0.00;;;;;;;18.58;50.41;102173.19;7352913;19;20006;-63
2022/08/10 03:07:47;;;;;;;0.00;0.00;;;;;;;18.54;50.89;102171.56;7365743;19;20007;-63
2022/08/10 03:10:20;;;;;;;0.00;0.00;;;;;;;18.50;49.96;102173.47;7365794;19;20010;-64
2022/08/10 03:12:49;;;;;;;0.00;0.00;;;;;;;18.46;50.44;102178.91;7366359;19;20013;-63
2022/08/10 03:15:17;;;;;;;0.00;0.00;;;;;;;18.39;51.19;102186.16;7365213;19;20038;-64
2022/08/10 03:17:45;;;;;;;0.00;0.00;;;;;;;18.34;51.44;102182.78;7365932;19;20625;-63
2022/08/10 03:20:12;;;;;;;0.00;0.00;;;;;;;18.30;51.61;102175.88;7357267;19;20007;-63
2022/08/10 03:22:39;;;;;;;0.00;0.00;;;;;;;18.17;51.93;102164.81;7364960;19;20030;-63
2022/08/10 03:25:07;;;;;;;0.00;0.00;;;;;;;18.19;51.66;102170.91;7362481;19;20580;-63
2022/08/10 03:27:33;;;;;;;0.00;0.00;;;;;;;18.22;51.51;102189.31;7365314;19;20042;-64
2022/08/10 03:29:59;;;;;;;0.00;0.00;;;;;;;18.18;52.17;102187.69;7362078;19;20011;-64
2022/08/10 03:32:25;;;;;;;0.00;0.00;;;;;;;18.17;52.06;102185.09;7366472;19;20105;-64
2022/08/10 03:34:52;;;;;;;0.00;0.00;;;;;;;18.14;52.24;102186.91;7364729;19;20014;-64
2022/08/10 03:37:18;;;;;;;0.00;0.00;;;;;;;18.13;52.02;102181.66;7365349;19;20137;-61
2022/08/10 03:39:43;;;;;;;0.00;0.00;;;;;;;18.09;52.52;102180.03;7366531;19;20011;-64
2022/08/10 03:42:13;;;;;;;0.00;0.00;;;;;;;18.03;51.77;102172.28;7363986;19;20074;-64
2022/08/10 03:44:41;;;;;;;0.00;0.00;;;;;;;18.05;52.14;102176.63;7366218;19;20021;-64
2022/08/10 03:47:07;;;;;;;;;;;;;;;18.04;46.76;102176.66;7364826;19;20017;-63
2022/08/10 03:49:36;;;;;;;0.00;0.00;;;;;;;17.98;51.18;102168.91;7364093;19;19921;-64
2022/08/10 03:52:02;;;;;;;0.00;0.00;;;;;;;17.95;52.25;102167.25;7365987;19;20834;-63
2022/08/10 03:54:27;;;;;;;0.00;0.00;;;;;;;17.91;52.87;102170.03;7362953;19;20013;-64
2022/08/10 03:56:53;;;;;;;0.00;0.00;;;;;;;17.84;52.91;102169.31;7365122;19;20458;-62
2022/08/10 03:59:20;;;;;;;0.10;0.10;;;;;;;17.82;53.02;102166.72;7365359;19;20038;-63
2022/08/10 04:01:46;;;;;;;0.00;0.00;;;;;;;17.77;52.61;102168.66;7364811;19;20007;-64
2022/08/10 04:04:12;;;;;;;0.00;0.00;;;;;;;17.74;53.16;102166.13;7363866;19;20014;-64
2022/08/10 04:06:37;;;;;;;0.00;0.00;;;;;;;17.70;52.82;102169.72;7364451;19;20044;-64
2022/08/10 04:09:03;;;;;;;0.00;0.00;;;;;;;17.54;53.23;102152.59;7364523;19;20014;-64
2022/08/10 04:11:29;;;;;;;0.00;0.00;;;;;;;17.62;53.47;102166.41;7364361;19;20026;-64
2022/08/10 04:13:55;;;;;;;0.00;0.00;;;;;;;17.48;53.17;102147.44;7364717;19;20002;-64
2022/08/10 04:16:20;;;;;;;0.00;0.00;;;;;;;17.53;53.21;102170.19;7362335;19;20014;-63
2022/08/10 04:18:46;;;;;;;0.03;0.03;;;;;;;17.49;53.46;102162.41;7364655;19;20732;-63
2022/08/10 04:21:16;;;;;;;0.00;0.00;;;;;;;17.44;52.95;102165.19;7365367;19;20089;-64
2022/08/10 04:23:48;;;;;;;0.00;0.00;;;;;;;17.38;52.22;102163.53;7363521;19;20014;-63
2022/08/10 04:26:14;;;;;;;0.00;0.00;;;;;;;17.34;53.09;102164.56;7365444;19;20006;-64
2022/08/10 04:28:40;;;;;;;0.00;0.00;;;;;;;17.22;52.95;102149.03;7362944;19;20018;-63
2022/08/10 04:31:08;;;;;;;0.10;0.10;;;;;;;17.24;53.40;102157.81;7364356;19;20755;-63
2022/08/10 04:33:36;;;;;;;0.00;0.00;;;;;;;17.18;53.63;102157.94;7363342;19;20829;-63
2022/08/10 04:36:03;;;;;;;0.00;0.00;;;;;;;17.15;53.53;102158.03;7363966;19;20006;-63
2022/08/10 04:38:30;;;;;;;;;;;;;;;17.11;48.63;102169.59;7363999;19;20423;-63
2022/08/10 04:40:57;;;;;;;0.00;0.00;;;;;;;17.02;53.21;102151.34;7364800;19;19935;-63
2022/08/10 04:43:22;;;;;;;0.00;0.00;;;;;;;17.04;53.87;102171.53;7365338;19;20082;-63
2022/08/10 04:45:48;;;;;;;0.00;0.00;;;;;;;17.00;53.76;102164.59;7361702;19;20070;-64
2022/08/10 04:48:13;;;;;;;0.00;0.00;;;;;;;16.81;53.59;102136.94;7364620;19;20557;-64
2022/08/10 04:50:38;;;;;;;0.00;0.00;;;;;;;16.93;53.41;102165.69;7362372;19;20009;-64
2022/08/10 04:53:04;;;;;;;0.00;0.00;;;;;;;16.90;53.59;102164.88;7362414;19;20011;-63
2022/08/10 04:55:29;;;;;;;0.00;0.00;;;;;;;16.86;53.99;102161.44;7363721;19;20006;-63
2022/08/10 04:57:55;;;;;;;0.00;0.00;;;;;;;16.79;53.99;102166.00;7363843;19;20776;-63
2022/08/10 05:00:20;;;;;;;0.00;0.00;;;;;;;16.80;53.88;102162.47;7363973;19;20771;-63
2022/08/10 05:02:46;;;;;;;0.00;0.00;;;;;;;16.78;53.47;102164.28;7360656;19;20010;-63
2022/08/10 05:05:11;;;;;;;0.00;0.00;;;;;;;16.75;53.87;102159.06;7359432;19;20007;-63
2022/08/10 05:07:37;;;;;;;0.00;0.00;;;;;;;16.76;54.31;102157.31;7363518;19;20108;-63
2022/08/10 05:10:03;;;;;;;0.00;0.00;;;;;;;16.75;53.99;102158.22;7360850;19;20014;-64
2022/08/10 05:12:29;;;;;;;0.00;0.00;;;;;;;16.73;54.07;102162.69;7363050;19;20022;-64
2022/08/10 05:14:54;;;;;;;0.00;0.00;;;;;;;16.71;54.21;102157.41;7363089;19;20010;-62
2022/08/10 05:17:20;;;;;;;0.00;0.00;;;;;;;16.70;54.21;102166.22;7360036;19;20035;-64
2022/08/10 05:19:46;;;;;;;0.00;0.00;;;;;;;16.62;54.61;102152.34;7364890;19;20049;-63
2022/08/10 05:22:11;;;;;;;0.00;0.00;;;;;;;16.66;54.16;102164.53;7359602;19;20014;-63
2022/08/10 05:24:37;;;;;;;0.00;0.00;;;;;;;16.67;54.37;102163.63;7361578;19;20090;-64
2022/08/10 05:27:02;;;;;;;0.00;0.00;;;;;;;16.67;54.29;102168.91;7361692;19;20032;-64
2022/08/10 05:29:28;;;;;;;0.00;0.00;;;;;;;16.66;54.42;102169.81;7361741;19;20026;-64
2022/08/10 05:31:54;;;;;;;0.00;0.00;;;;;;;16.65;54.07;102165.44;7362742;19;20418;-63
2022/08/10 05:34:25;;;;;;;0.00;0.00;;;;;;;16.55;54.28;102150.75;7360134;19;20022;-64
2022/08/10 05:36:51;;;;;;;0.00;0.00;;;;;;;16.56;54.66;102158.63;7363627;19;20036;-64
2022/08/10 05:39:18;;;;;;;0.00;0.00;;;;;;;16.64;54.35;102170.78;7357675;19;20404;-62
2022/08/10 05:41:46;;;;;;;0.00;0.00;;;;;;;16.61;54.31;102161.16;7361796;19;20024;-63
2022/08/10 05:44:12;;;;;;;0.00;0.00;;;;;;;16.63;54.30;102159.38;7360557;19;20011;-63
2022/08/10 05:46:37;;;;;;;0.00;0.00;;;;;;;16.54;54.28;102143.75;7363044;19;20715;-64
2022/08/10 05:49:03;;;;;;;0.00;0.00;;;;;;;16.62;55.25;102152.34;7359943;19;20014;-62
2022/08/10 05:51:29;;;;;;;0.00;0.00;;;;;;;16.58;54.81;102151.56;7362881;19;20010;-64
2022/08/10 05:53:54;;;;;;;0.00;0.00;;;;;;;16.56;54.75;102145.44;7360085;19;20134;-64
2022/08/10 05:56:20;;;;;;;0.00;0.00;;;;;;;16.63;54.78;102158.50;7362422;19;20025;-63
2022/08/10 05:58:45;;;;;;;0.00;0.00;;;;;;;16.63;55.35;102151.44;7351887;19;20320;-63
2022/08/10 06:01:13;;;;;;;0.00;0.00;;;;;;;16.64;55.08;102155.81;7361350;19;20022;-64
2022/08/10 06:03:49;;;;;;;0.00;0.00;;;;;;;16.66;54.33;102158.41;7357705;19;20029;-64
2022/08/10 06:06:18;;;;;;;0.00;0.00;;;;;;;16.67;55.38;102157.50;7366774;19;20006;-64
2022/08/10 06:08:45;;;;;;;0.00;0.00;;;;;;;16.67;55.80;102161.00;7367136;19;20045;-64
2022/08/10 06:11:12;;;;;;;0.00;0.00;;;;;;;16.70;55.41;102162.72;7364000;19;20014;-63
2022/08/10 06:16:27;;;;;;;0.00;0.00;;;;;;;16.73;55.61;102166.19;7362914;19;20112;-63
2022/08/10 06:18:53;;;;;;;0.00;0.00;;;;;;;16.75;55.56;102164.34;7366092;19;20038;-63
2022/08/10 06:21:20;;;;;;;0.00;0.00;;;;;;;16.77;55.45;102167.81;7365568;19;20007;-63
2022/08/10 06:23:47;;;;;;;0.03;0.03;;;;;;;16.81;56.00;102168.59;7363275;19;20019;-64
2022/08/10 06:26:12;;;;;;;0.00;0.00;;;;;;;16.82;55.85;102165.91;7364601;19;20017;-64
2022/08/10 06:28:41;;;;;;;0.00;0.00;;;;;;;16.86;56.10;102169.34;7365215;19;20023;-64
2022/08/10 06:31:08;;;;;;;0.00;0.00;;;;;;;16.84;56.09;102164.13;7362447;19;20566;-62
2022/08/10 06:33:36;;;;;;;0.00;0.00;;;;;;;16.92;56.29;102169.19;7365329;19;20485;-63
2022/08/10 06:36:03;;;;;;;0.00;0.00;;;;;;;16.92;56.31;102168.34;7365027;19;20041;-64
2022/08/10 06:38:31;;;;;;;0.00;0.00;;;;;;;16.99;55.89;102172.56;7364092;19;20010;-64
2022/08/10 06:41:00;;;;;;;0.10;0.10;;;;;;;17.04;56.26;102178.59;7366184;19;20465;-64
2022/08/10 06:43:29;;;;;;;0.00;0.00;;;;;;;17.06;56.12;102168.84;7365482;19;21088;-63
2022/08/10 06:46:00;;;;;;;0.00;0.00;;;;;;;17.13;55.39;102173.03;7364804;19;20027;-63
2022/08/10 06:48:31;;;;;;;0.00;0.00;;;;;;;17.18;56.41;102167.63;7365996;19;20364;-63
2022/08/10 06:51:00;;;;;;;0.00;0.00;;;;;;;17.22;56.50;102159.59;7365355;19;20103;-63
2022/08/10 06:53:38;;;;;;;0.00;0.00;;;;;;;17.28;54.80;102159.44;7360614;19;20006;-64
2022/08/10 06:56:10;;;;;;;0.00;0.00;;;;;;;17.34;56.53;102154.00;7366393;19;20027;-64
2022/08/10 06:58:39;;;;;;;0.00;0.00;;;;;;;17.38;56.87;102154.75;7362766;19;20009;-63
2022/08/10 07:01:11;;;;;;;0.00;0.00;;;;;;;17.45;57.38;102150.19;7365354;19;20011;-64
2022/08/10 07:03:46;;;;;;;0.00;0.00;;;;;;;17.54;55.98;102144.66;7363638;19;20037;-64
2022/08/10 07:06:14;;;;;;;0.00;0.00;;;;;;;17.59;57.66;102153.31;7363210;19;20025;-63
2022/08/10 07:08:41;;;;;;;0.00;0.00;;;;;;;17.66;57.73;102149.56;7364556;19;20557;-63
2022/08/10 07:11:08;;;;;;;0.00;0.00;;;;;;;17.73;57.44;102148.50;7366456;19;20023;-64
2022/08/10 07:13:37;;;;;;;0.00;0.00;;;;;;;17.82;57.53;102145.59;7364754;19;20007;-63
2022/08/10 07:16:04;;;;;;;0.00;0.00;;;;;;;17.89;58.24;102133.94;7362204;19;20007;-63
2022/08/10 07:18:31;;;;;;;0.00;0.00;;;;;;;17.97;57.69;102138.13;7366019;19;20006;-64
2022/08/10 07:21:00;;;;;;;0.10;0.10;;;;;;;18.05;57.39;102142.28;7366275;19;20014;-64
2022/08/10 07:23:28;;;;;;;0.00;0.00;;;;;;;18.14;57.69;102138.44;7360140;19;20501;-64
2022/08/10 07:25:56;;;;;;;0.00;0.00;;;;;;;18.22;57.77;102144.38;7359870;19;20021;-63
2022/08/10 07:28:22;;;;;;;0.00;0.00;;;;;;;18.26;58.07;102137.22;7361889;19;20010;-63
2022/08/10 07:30:50;;;;;;;0.00;0.00;;;;;;;18.38;57.94;102142.97;7364097;19;20019;-63
2022/08/10 07:33:20;;;;;;;0.00;0.00;;;;;;;18.46;57.43;102152.44;7363842;19;20017;-63
2022/08/10 07:35:47;;;;;;;0.00;0.00;;;;;;;18.52;58.38;102153.09;7362974;19;20074;-64
2022/08/10 07:38:21;;;;;;;0.00;0.00;;;;;;;18.63;56.83;102160.69;7361670;19;20022;-63
2022/08/10 07:40:49;;;;;;;0.05;0.05;;;;;;;18.58;57.55;102144.97;7363249;19;20038;-64
2022/08/10 07:43:17;;;;;;;0.00;0.00;;;;;;;18.78;57.84;102173.44;7359779;19;20739;-63
2022/08/10 07:45:45;;;;;;;0.00;0.00;;;;;;;18.83;58.39;102170.66;7362104;19;20014;-62
2022/08/10 07:48:28;;;;;;;0.00;0.00;;;;;;;18.86;55.20;102157.31;7362550;19;20058;-64
2022/08/10 07:50:58;;;;;;;0.08;0.08;;;;;;;19.03;57.59;102172.63;7363745;19;20113;-63
2022/08/10 07:53:26;;;;;;;0.00;0.00;;;;;;;19.11;57.11;102167.91;7350927;19;20660;-63
2022/08/10 07:55:54;;;;;;;0.00;0.00;;;;;;;19.16;57.54;102171.28;7359887;19;20534;-63
2022/08/10 07:58:23;;;;;;;;;;;;;;;19.28;53.11;102167.31;7353994;19;20017;-63
2022/08/10 08:00:51;;;;;;;0.08;0.08;;;;;;;19.32;56.95;102161.88;7355536;19;20240;-64
2022/08/10 08:03:23;;;;;;;0.00;0.00;;;;;;;19.39;56.50;102168.66;7360124;19;20022;-64
2022/08/10 08:05:49;;;;;;;0.00;0.00;;;;;;;19.37;56.66;102153.75;7357969;19;20391;-63
2022/08/10 08:08:17;;;;;;;0.00;0.00;;;;;;;19.50;56.58;102167.41;7359322;19;20022;-64
2022/08/10 08:10:42;;;;;;;0.00;0.00;;;;;;;19.57;56.62;102166.28;7359270;19;20074;-63
2022/08/10 08:13:08;;;;;;;0.00;0.00;;;;;;;19.64;56.86;102167.78;7359671;19;20796;-64
2022/08/10 08:15:34;;;;;;;0.00;0.00;;;;;;;19.65;56.41;102145.66;7358393;19;20021;-64
2022/08/10 08:18:01;;;;;;;0.10;0.10;;;;;;;19.78;56.65;102160.19;7361179;19;20041;-64
2022/08/10 08:20:28;;;;;;;0.00;0.00;;;;;;;19.80;56.08;102146.88;7360755;19;21013;-63
2022/08/10 08:22:54;;;;;;;0.00;0.00;;;;;;;19.92;55.72;102157.88;7359313;19;20722;-62
2022/08/10 08:25:21;;;;;;;0.00;0.00;;;;;;;19.96;55.64;102148.88;7361619;19;20812;-64
2022/08/10 08:27:51;;;;;;;0.00;0.00;;;;;;;20.06;55.50;102149.38;7359221;19;20034;-63
2022/08/10 08:30:17;;;;;;;0.03;0.03;;;;;;;20.17;53.86;102151.59;7362265;19;20018;-64
2022/08/10 08:32:43;;;;;;;0.10;0.10;;;;;;;20.21;54.07;102148.75;7362894;19;20011;-64
2022/08/10 08:35:13;;;;;;;0.00;0.00;;;;;;;20.36;53.55;102157.91;7360900;19;20017;-64
2022/08/10 08:37:40;;;;;;;0.10;0.10;;;;;;;20.41;53.36;102149.75;7358231;19;20054;-63
2022/08/10 08:40:32;;;;;;;0.10;0.10;;;;;;;20.55;52.05;102149.22;7360630;19;20017;-64
2022/08/10 08:43:22;;;;;;;0.00;0.00;;;;;;;20.64;52.32;102154.16;7260607;19;2004174;-63
2022/08/10 08:46:07;;;;;;;0.00;0.00;;;;;;;20.71;49.69;102158.28;7259627;19;2004522;-64
2022/08/10 08:49:03;;;;;;;0.00;0.00;;;;;;;20.82;50.59;102144.53;7365169;19;20029;-64
2022/08/10 08:52:02;;;;;;;0.00;0.00;;;;;;;20.90;50.12;102143.28;7260702;19;2004364;-63
2022/08/10 08:55:03;;;;;;;0.00;0.00;;;;;;;20.98;49.69;102146.50;7260153;19;2004392;-64
2022/08/10 08:57:50;;;;;;;0.10;0.10;;;;;;;21.08;49.36;102140.75;7260421;19;2004389;-64
2022/08/10 09:00:34;;;;;;;0.00;0.00;;;;;;;21.13;48.66;102138.75;7361643;19;20433;-64
2022/08/10 09:03:36;;;;;;;0.00;0.00;;;;;;;21.23;48.46;102130.31;7356392;19;20629;-64
2022/08/10 09:06:13;;;;;;;0.00;0.00;;;;;;;21.35;48.58;102128.09;7255911;19;2004271;-64
2022/08/10 09:08:41;;;;;;;;;;;;;;;21.52;48.49;102125.53;7360204;19;20824;-65
2022/08/10 09:11:12;;;;;;;0.00;0.00;;;;;;;21.73;47.72;102126.31;7358317;19;20770;-64
2022/08/10 09:13:52;;;;;;;0.00;0.00;;;;;;;21.99;47.59;102119.75;7355838;19;20030;-64
2022/08/10 09:17:05;;;;;;;0.00;0.00;;;;;;;22.31;46.84;102120.91;7354012;19;20010;-64
2022/08/10 09:19:47;;;;;;;0.10;0.10;;;;;;;22.76;46.77;102122.19;7248383;19;2004325;-62
2022/08/10 09:22:42;;;;;;;0.10;0.10;;;;;;;23.16;45.49;102120.13;7355428;19;20010;-65
2022/08/10 09:25:22;;;;;;;0.08;0.08;;;;;;;23.61;45.33;102116.78;7258538;19;2004385;-64
2022/08/10 09:28:10;;;;;;;0.00;0.00;;;;;;;24.05;45.15;102125.00;7360081;19;20026;-65
2022/08/10 09:30:56;;;;;;;0.10;0.10;;;;;;;24.48;44.69;102125.25;7362808;19;20038;-64
2022/08/10 09:34:00;;;;;;;0.00;0.00;;;;;;;24.92;44.18;102113.69;7358182;19;20089;-65
2022/08/10 09:36:32;;;;;;;0.00;0.00;;;;;;;25.34;42.46;102114.72;7257698;19;2004470;-64
2022/08/10 09:39:04;;;;;;;0.10;0.10;;;;;;;25.63;41.13;102108.38;7360260;19;20009;-66
2022/08/10 09:42:08;;;;;;;0.10;0.10;;;;;;;26.11;42.41;102111.56;7365419;19;20866;-65
2022/08/10 09:44:48;;;;;;;0.00;0.00;;;;;;;26.54;40.60;102108.72;7263182;19;2004202;-66
2022/08/10 09:47:25;;;;;;;0.10;0.10;;;;;;;26.98;40.53;102106.63;7364224;19;20021;-65
2022/08/10 09:50:03;;;;;;;0.10;0.10;;;;;;;27.42;41.10;102106.19;7363230;19;20040;-66
2022/08/10 09:53:02;;;;;;;0.10;0.10;;;;;;;27.95;40.70;102114.88;7363328;19;20538;-66
2022/08/10 09:55:55;;;;;;;0.10;0.10;;;;;;;28.39;39.04;102108.91;7257485;19;2004153;-66
2022/08/10 09:58:33;;;;;;;0.00;0.00;;;;;;;28.87;37.53;102113.31;7259596;19;2004452;-65
2022/08/10 10:01:11;;;;;;;0.03;0.03;;;;;;;29.28;37.25;102112.75;7366082;19;20022;-66
2022/08/10 10:03:42;;;;;;;0.10;0.10;;;;;;;29.60;35.87;102110.22;7361701;19;20011;-67
2022/08/10 10:06:18;;;;;;;0.10;0.10;;;;;;;29.89;36.26;102097.06;7362827;19;20129;-67
2022/08/10 10:09:25;;;;;;;0.10;0.10;;;;;;;30.37;37.34;102101.22;7363089;19;20722;-66
2022/08/10 10:11:51;;;;;;;0.00;0.00;;;;;;;30.60;34.48;102105.47;7260485;19;2004470;-66
2022/08/10 10:15:19;;;;;;;0.00;0.00;;;;;;;31.18;35.18;102107.72;7362721;19;20014;-65
2022/08/10 10:18:16;;;;;;;0.00;0.00;;;;;;;31.62;34.83;102098.34;7258465;19;2004689;-66
2022/08/10 10:21:04;;;;;;;0.00;0.00;;;;;;;32.13;34.32;102101.88;7253022;19;2004540;-65
2022/08/10 10:23:57;;;;;;;0.03;0.03;;;;;;;32.49;33.78;102103.03;7359593;19;20011;-65
2022/08/10 10:26:34;;;;;;;0.00;0.00;;;;;;;32.80;32.19;102098.31;7360144;19;20078;-65
2022/08/10 10:29:21;;;;;;;0.00;0.00;;;;;;;33.05;29.90;102086.84;7364742;19;20014;-65
2022/08/10 10:32:15;;;;;;;0.00;0.00;;;;;;;33.48;31.50;102088.09;7364014;19;20085;-66
2022/08/10 10:35:02;;;;;;;0.00;0.00;;;;;;;33.90;31.73;102087.53;7264166;19;2004539;-66
2022/08/10 10:37:30;;;;;;;0.00;0.00;;;;;;;34.06;28.12;102081.44;7361014;19;20045;-66
2022/08/10 10:39:57;;;;;;;0.00;0.00;;;;;;;34.29;27.34;102076.41;7360667;19;20355;-65
2022/08/10 10:42:34;;;;;;;0.00;0.00;;;;;;;34.61;28.85;102059.53;7361435;19;20111;-66
2022/08/10 10:45:27;;;;;;;0.00;0.00;;;;;;;35.08;29.91;102072.75;7359913;19;20018;-66
2022/08/10 10:48:11;;;;;;;0.00;0.00;;;;;;;35.41;29.38;102067.44;7253993;19;2004650;-65
2022/08/10 10:51:05;;;;;;;0.00;0.00;;;;;;;35.67;28.75;102041.03;7350299;19;20056;-65
2022/08/10 10:53:38;;;;;;;0.00;0.00;;;;;;;36.10;26.64;102063.56;7261458;19;2004336;-66
2022/08/10 10:56:15;;;;;;;0.00;0.00;;;;;;;36.36;26.92;102061.50;7364359;19;20010;-66
2022/08/10 10:59:19;;;;;;;0.00;0.00;;;;;;;36.80;27.49;102039.34;7360125;19;20375;-66
2022/08/10 11:02:04;;;;;;;0.00;0.00;;;;;;;37.29;27.32;102047.31;7256849;19;2004616;-66
2022/08/10 11:04:39;;;;;;;0.00;0.00;;;;;;;37.58;26.32;102043.09;7361727;19;20013;-66
2022/08/10 11:07:34;;;;;;;0.00;0.00;;;;;;;38.02;25.15;102042.44;7360044;19;20015;-64
2022/08/10 11:10:12;;;;;;;0.05;0.05;;;;;;;38.48;24.14;102034.22;7251139;19;2004550;-64
2022/08/10 11:12:45;;;;;;;0.10;0.10;;;;;;;38.77;23.03;102034.25;7360278;19;20018;-64
2022/08/10 11:15:38;;;;;;;0.00;0.00;;;;;;;39.23;24.13;102031.31;7362653;19;20011;-64
2022/08/10 11:18:17;;;;;;;0.00;0.00;;;;;;;39.39;22.81;102024.78;7259434;19;2004263;-64
2022/08/10 11:21:03;;;;;;;0.10;0.10;;;;;;;39.69;22.66;102028.25;7365052;19;20018;-64
2022/08/10 11:23:35;;;;;;;0.10;0.10;;;;;;;40.08;20.74;102026.97;7365063;19;20339;-64
2022/08/10 11:26:34;;;;;;;0.00;0.00;;;;;;;40.51;22.12;102029.66;7360494;19;20017;-64
2022/08/10 11:29:11;;;;;;;0.10;0.10;;;;;;;40.68;21.14;102017.31;7260414;19;2005379;-63
2022/08/10 11:31:46;;;;;;;0.10;0.10;;;;;;;41.04;20.03;102027.22;7359526;19;20014;-63
2022/08/10 11:34:21;;;;;;;0.00;0.00;;;;;;;41.30;19.96;102024.56;7359838;19;20469;-63
2022/08/10 11:36:52;;;;;;;0.10;0.10;;;;;;;41.46;18.05;102015.97;7360605;19;20489;-65
2022/08/10 11:39:47;;;;;;;0.10;0.10;;;;;;;41.96;20.69;102016.47;7358555;19;20015;-64
2022/08/10 11:42:30;;;;;;;0.03;0.03;;;;;;;42.13;19.55;101994.09;7256306;19;2004428;-63
2022/08/10 11:45:09;;;;;;;0.10;0.10;;;;;;;42.49;18.84;102008.22;7361239;19;20454;-64
2022/08/10 11:47:51;;;;;;;0.10;0.10;;;;;;;42.77;18.97;102004.34;7356740;19;20458;-64
2022/08/10 11:50:24;;;;;;;0.10;0.10;;;;;;;42.77;17.53;102001.59;7355240;19;20438;-64
2022/08/10 11:52:55;;;;;;;0.10;0.10;;;;;;;43.02;15.21;102000.88;7352517;19;20011;-64
2022/08/10 11:55:27;;;;;;;0.10;0.10;;;;;;;43.42;17.29;101999.63;7357969;19;20090;-64